Time;durP1;ratioP1;P1;durP2;ratioP2;P2;SDS_P1;SDS_P2;PMS_P1;PMS_P2;Temp;Humidity;BMP_temperature;BMP_pressure;BME280_temperature;BME280_humidity;BME280_pressure;Samples;Min_cycle;Max_cycle;Signal;HPM_P1;HPM_P2
2023/06/13 11:48:45;;;;;;;;;;;;;;;;;;6165766;22;3557894;-81
2023/06/13 11:51:11;;;;;;;;;;;;;;;;;;6241850;22;19965;-80
2023/06/13 11:53:37;;;;;;;;;;;;;;;;;;6240655;22;20199;-80
2023/06/13 11:56:03;;;;;;;;;;;;;;;;;;6241244;22;19927;-79
2023/06/13 11:58:29;;;;;;;;;;;;;;;;;;6241775;22;20334;-79
2023/06/13 12:00:55;;;;;;;;;;;;;;;;;;6242375;22;20021;-80
2023/06/13 12:03:22;;;;;;;;;;;;;;;;;;6241023;22;19919;-81
2023/06/13 12:05:52;;;;;;;;;;;;;;;;;;6242300;22;20022;-80
2023/06/13 12:08:18;;;;;;;;;;;;;;;;;;6241952;22;20018;-79
2023/06/13 12:10:44;;;;;;;;;;;;;;;;;;6243159;22;20741;-80
2023/06/13 12:13:11;;;;;;;;;;;;;;;;;;6242684;22;19930;-79
2023/06/13 12:15:37;;;;;;;;;;;;;;;;;;6217446;22;19915;-82
2023/06/13 12:18:03;;;;;;;;;;;;;;;;;;6236054;22;19928;-81
2023/06/13 12:20:29;;;;;;;;;;;;;;;;;;6211016;22;19952;-85
2023/06/13 12:22:56;;;;;;;;;;;;;;;;;;6237301;22;20393;-79
2023/06/13 12:25:22;;;;;;;;;;;;;;;;;;6210078;22;20439;-83
2023/06/13 12:27:50;;;;;;;;;;;;;;;;;;6261098;22;19923;-78
2023/06/13 12:30:17;;;;;;;;;;;;;;;;;;6233496;22;19926;-78
2023/06/13 12:32:43;;;;;;;;;;;;;;;;;;6233873;22;20408;-78
2023/06/13 12:35:09;;;;;;;;;;;;;;;;;;6235196;22;19919;-78
2023/06/13 12:37:40;;;;;;;;;;;;;;;;;;6234455;22;19919;-78
2023/06/13 12:40:12;;;;;;;;;;;;;;;;;;6233639;22;20409;-80
2023/06/13 12:42:42;;;;;;;;;;;;;;;;;;6210054;22;19919;-80
2023/06/13 12:45:08;;;;;;;;;;;;;;;;;;6235120;22;19923;-80
2023/06/13 12:47:34;;;;;;;;;;;;;;;;;;6234613;22;19926;-79
2023/06/13 12:50:00;;;;;;;;;;;;;;;;;;6229962;23;19923;-80
2023/06/13 12:52:26;;;;;;;;;;;;;;;;;;6230548;23;19920;-79
2023/06/13 12:54:52;;;;;;;;;;;;;;;;;;6229578;23;20456;-80
2023/06/13 12:57:19;;;;;;;;;;;;;;;;;;6204727;23;20353;-80
2023/06/13 12:59:46;;;;;;;;;;;;;;;;;;6229647;23;20401;-79
2023/06/13 13:02:11;;;;;;;;;;;;;;;;;;6230121;23;19923;-80
2023/06/13 13:04:37;;;;;;;;;;;;;;;;;;6230736;23;19923;-79
2023/06/13 13:07:03;;;;;;;;;;;;;;;;;;6230072;23;19934;-79
2023/06/13 13:09:30;;;;;;;;;;;;;;;;;;6230121;23;20360;-80
2023/06/13 13:11:56;;;;;;;;;;;;;;;;;;6229695;23;19930;-77
2023/06/13 13:14:22;;;;;;;;;;;;;;;;;;6230381;23;19923;-76
2023/06/13 13:16:48;;;;;;;;;;;;;;;;;;6229679;23;19920;-76
2023/06/13 13:19:14;;;;;;;;;;;;;;;;;;6228906;23;20391;-76
2023/06/13 13:21:40;;;;;;;;;;;;;;;;;;6231674;23;19930;-76
2023/06/13 13:24:06;;;;;;;;;;;;;;;;;;6204038;23;19919;-77
2023/06/13 13:26:32;;;;;;;;;;;;;;;;;;6229839;23;20379;-77
2023/06/13 13:28:58;;;;;;;;;;;;;;;;;;6228573;23;19919;-78
2023/06/13 13:31:24;;;;;;;;;;;;;;;;;;6230310;23;19985;-77
2023/06/13 13:33:50;;;;;;;;;;;;;;;;;;6204625;23;19994;-77
2023/06/13 13:36:16;;;;;;;;;;;;;;;;;;6230945;23;20591;-77
2023/06/13 13:38:42;;;;;;;;;;;;;;;;;;6230120;23;19977;-78
2023/06/13 13:41:08;;;;;;;;;;;;;;;;;;6230248;23;19920;-77
2023/06/13 13:43:34;;;;;;;;;;;;;;;;;;6204332;23;19923;-77
2023/06/13 13:46:00;;;;;;;;;;;;;;;;;;6204449;23;19924;-77
2023/06/13 13:48:26;;;;;;;;;;;;;;;;;;6207294;22;19926;-77
2023/06/13 13:50:52;;;;;;;;;;;;;;;;;;6235675;22;19925;-77
2023/06/13 13:53:18;;;;;;;;;;;;;;;;;;6209826;22;20767;-78
2023/06/13 13:55:45;;;;;;;;;;;;;;;;;;6208749;22;19958;-78
2023/06/13 13:58:11;;;;;;;;;;;;;;;;;;6235226;22;19961;-77
2023/06/13 14:00:37;;;;;;;;;;;;;;;;;;6209937;22;20694;-78
2023/06/13 14:03:03;;;;;;;;;;;;;;;;;;6209854;22;20023;-78
2023/06/13 14:05:29;;;;;;;;;;;;;;;;;;6233915;22;20366;-78
2023/06/13 14:07:55;;;;;;;;;;;;;;;;;;6235146;22;19923;-78
2023/06/13 14:10:21;;;;;;;;;;;;;;;;;;6209402;22;19966;-78
2023/06/13 14:12:46;;;;;;;;;;;;;;;;;;6234305;22;20347;-78
2023/06/13 14:15:12;;;;;;;;;;;;;;;;;;6234163;22;20365;-77
2023/06/13 14:17:39;;;;;;;;;;;;;;;;;;6207900;22;20147;-77
2023/06/13 14:20:05;;;;;;;;;;;;;;;;;;6234118;22;19920;-80
2023/06/13 14:22:31;;;;;;;;;;;;;;;;;;6209317;22;19923;-81
2023/06/13 14:24:56;;;;;;;;;;;;;;;;;;6209563;22;19925;-80
2023/06/13 14:27:22;;;;;;;;;;;;;;;;;;6234493;22;20120;-80
2023/06/13 14:29:50;;;;;;;;;;;;;;;;;;6208343;22;19919;-79
2023/06/13 14:32:16;;;;;;;;;;;;;;;;;;6234266;22;20032;-80
2023/06/13 14:34:42;;;;;;;;;;;;;;;;;;6209043;22;20303;-79
2023/06/13 14:37:07;;;;;;;;;;;;;;;;;;6234706;22;20417;-79
2023/06/13 14:39:33;;;;;;;;;;;;;;;;;;6208797;22;20368;-79
2023/06/13 14:42:00;;;;;;;;;;;;;;;;;;6233570;22;19982;-79
2023/06/13 14:44:26;;;;;;;;;;;;;;;;;;6208234;22;19923;-79
2023/06/13 14:46:52;;;;;;;;;;;;;;;;;;6209022;22;19924;-79
2023/06/13 14:49:21;;;;;;;;;;;;;;;;;;6209475;22;19923;-79
2023/06/13 14:51:47;;;;;;;;;;;;;;;;;;6209282;22;19919;-78
2023/06/13 14:54:14;;;;;;;;;;;;;;;;;;6208427;22;19973;-79
2023/06/13 14:56:39;;;;;;;;;;;;;;;;;;6234148;22;19923;-79
2023/06/13 14:59:05;;;;;;;;;;;;;;;;;;6234617;22;20475;-79
2023/06/13 15:01:32;;;;;;;;;;;;;;;;;;6209152;22;19919;-79
2023/06/13 15:04:00;;;;;;;;;;;;;;;;;;6208167;22;20421;-79
2023/06/13 15:06:26;;;;;;;;;;;;;;;;;;6233918;22;20041;-79
2023/06/13 15:08:52;;;;;;;;;;;;;;;;;;6233792;22;19938;-79
2023/06/13 15:11:18;;;;;;;;;;;;;;;;;;6209269;22;19919;-78
2023/06/13 15:13:44;;;;;;;;;;;;;;;;;;6208434;22;19919;-79
2023/06/13 15:16:10;;;;;;;;;;;;;;;;;;6209098;22;19926;-79
2023/06/13 15:18:36;;;;;;;;;;;;;;;;;;6234295;22;20162;-79
2023/06/13 15:21:02;;;;;;;;;;;;;;;;;;6234138;22;19923;-79
2023/06/13 15:23:28;;;;;;;;;;;;;;;;;;6234758;22;19926;-79
2023/06/13 15:25:57;;;;;;;;;;;;;;;;;;6235630;22;19927;-79
2023/06/13 15:28:26;;;;;;;;;;;;;;;;;;6233880;22;20308;-78
2023/06/13 15:30:52;;;;;;;;;;;;;;;;;;6208587;22;19934;-77
2023/06/13 15:33:19;;;;;;;;;;;;;;;;;;6208006;22;19977;-78
2023/06/13 15:35:45;;;;;;;;;;;;;;;;;;6234305;22;19926;-78
2023/06/13 15:38:11;;;;;;;;;;;;;;;;;;6233207;22;19919;-78
2023/06/13 15:40:37;;;;;;;;;;;;;;;;;;6234009;22;20347;-78
2023/06/13 15:43:03;;;;;;;;;;;;;;;;;;6208346;22;19962;-79
2023/06/13 15:45:29;;;;;;;;;;;;;;;;;;6208567;22;20323;-79
2023/06/13 15:47:55;;;;;;;;;;;;;;;;;;6234091;22;19999;-79
2023/06/13 15:50:21;;;;;;;;;;;;;;;;;;6207760;22;19923;-78
2023/06/13 15:52:51;;;;;;;;;;;;;;;;;;6234014;22;19919;-79
2023/06/13 15:55:20;;;;;;;;;;;;;;;;;;6262239;22;19965;-79
2023/06/13 15:57:46;;;;;;;;;;;;;;;;;;6209956;22;19938;-78
2023/06/13 16:00:12;;;;;;;;;;;;;;;;;;6236200;22;19919;-78
2023/06/13 16:02:38;;;;;;;;;;;;;;;;;;6235709;22;20564;-79
2023/06/13 16:05:04;;;;;;;;;;;;;;;;;;6235956;22;19919;-78
2023/06/13 16:07:30;;;;;;;;;;;;;;;;;;6235202;22;19947;-78
2023/06/13 16:09:56;;;;;;;;;;;;;;;;;;6235847;22;19951;-78
2023/06/13 16:12:22;;;;;;;;;;;;;;;;;;6235639;22;19920;-77
2023/06/13 16:14:48;;;;;;;;;;;;;;;;;;6210446;22;19925;-78
2023/06/13 16:17:13;;;;;;;;;;;;;;;;;;6235515;22;19955;-78
2023/06/13 16:19:39;;;;;;;;;;;;;;;;;;6209777;22;19922;-78
2023/06/13 16:22:05;;;;;;;;;;;;;;;;;;6235682;22;19926;-77
2023/06/13 16:24:31;;;;;;;;;;;;;;;;;;6235837;22;20022;-78
2023/06/13 16:26:57;;;;;;;;;;;;;;;;;;6235513;22;19923;-78
2023/06/13 16:29:23;;;;;;;;;;;;;;;;;;6235357;22;19923;-78
2023/06/13 16:31:49;;;;;;;;;;;;;;;;;;6211294;22;19919;-78
2023/06/13 16:34:15;;;;;;;;;;;;;;;;;;6235326;22;19919;-78
2023/06/13 16:36:42;;;;;;;;;;;;;;;;;;6209832;22;19923;-78
2023/06/13 16:39:08;;;;;;;;;;;;;;;;;;6210077;22;19919;-78
2023/06/13 16:41:34;;;;;;;;;;;;;;;;;;6210511;22;19930;-78
2023/06/13 16:44:00;;;;;;;;;;;;;;;;;;6210030;22;19994;-78
2023/06/13 16:46:25;;;;;;;;;;;;;;;;;;6209398;22;20319;-79
2023/06/13 16:48:51;;;;;;;;;;;;;;;;;;6233943;22;19924;-77
2023/06/13 16:51:17;;;;;;;;;;;;;;;;;;6209781;22;20222;-77
2023/06/13 16:53:43;;;;;;;;;;;;;;;;;;6209850;22;19923;-78
2023/06/13 16:56:09;;;;;;;;;;;;;;;;;;6235061;22;20651;-78
2023/06/13 16:58:35;;;;;;;;;;;;;;;;;;6209821;22;20356;-77
2023/06/13 17:01:01;;;;;;;;;;;;;;;;;;6209949;22;19919;-77
